sensor_id;sensor_type;location;lat;lon;timestamp;P1;durP1;ratioP1;P2;durP2;ratioP2
30707;SDS011;17458;48.958;8.284;2023-08-08T00:00:22;6.40;;;1.50;;
30707;SDS011;17458;48.958;8.284;2023-08-08T00:03:06;5.60;;;1.77;;
30707;SDS011;17458;48.958;8.284;2023-08-08T00:05:50;3.05;;;1.88;;
30707;SDS011;17458;48.958;8.284;2023-08-08T00:08:34;3.60;;;1.67;;
30707;SDS011;17458;48.958;8.284;2023-08-08T00:11:20;5.78;;;1.83;;
30707;SDS011;17458;48.958;8.284;2023-08-08T00:14:04;2.78;;;1.85;;
30707;SDS011;17458;48.958;8.284;2023-08-08T00:16:48;3.50;;;1.83;;
30707;SDS011;17458;48.958;8.284;2023-08-08T00:19:36;1.75;;;1.65;;
30707;SDS011;17458;48.958;8.284;2023-08-08T00:22:20;2.13;;;1.60;;
30707;SDS011;17458;48.958;8.284;2023-08-08T00:25:04;2.83;;;2.17;;
30707;SDS011;17458;48.958;8.284;2023-08-08T00:27:49;3.92;;;2.08;;
30707;SDS011;17458;48.958;8.284;2023-08-08T00:30:34;2.60;;;1.75;;
30707;SDS011;17458;48.958;8.284;2023-08-08T00:33:20;4.72;;;1.70;;
30707;SDS011;17458;48.958;8.284;2023-08-08T00:36:05;3.42;;;2.05;;
30707;SDS011;17458;48.958;8.284;2023-08-08T00:38:49;2.00;;;1.65;;
30707;SDS011;17458;48.958;8.284;2023-08-08T00:41:33;2.03;;;1.67;;
30707;SDS011;17458;48.958;8.284;2023-08-08T00:44:17;7.30;;;1.85;;
30707;SDS011;17458;48.958;8.284;2023-08-08T00:47:01;4.47;;;1.92;;
30707;SDS011;17458;48.958;8.284;2023-08-08T00:49:46;1.90;;;1.80;;
30707;SDS011;17458;48.958;8.284;2023-08-08T00:52:32;2.95;;;1.83;;
30707;SDS011;17458;48.958;8.284;2023-08-08T00:55:17;3.78;;;1.63;;
30707;SDS011;17458;48.958;8.284;2023-08-08T00:58:01;2.10;;;1.60;;
30707;SDS011;17458;48.958;8.284;2023-08-08T01:00:46;3.10;;;1.60;;
30707;SDS011;17458;48.958;8.284;2023-08-08T01:03:30;1.98;;;1.50;;
30707;SDS011;17458;48.958;8.284;2023-08-08T01:09:15;3.22;;;2.25;;
30707;SDS011;17458;48.958;8.284;2023-08-08T01:12:28;5.55;;;1.73;;
30707;SDS011;17458;48.958;8.284;2023-08-08T01:15:12;3.28;;;1.67;;
30707;SDS011;17458;48.958;8.284;2023-08-08T01:17:57;4.43;;;1.70;;
30707;SDS011;17458;48.958;8.284;2023-08-08T01:20:42;2.53;;;2.03;;
30707;SDS011;17458;48.958;8.284;2023-08-08T01:23:34;4.18;;;1.50;;
30707;SDS011;17458;48.958;8.284;2023-08-08T01:26:29;4.65;;;2.70;;
30707;SDS011;17458;48.958;8.284;2023-08-08T01:29:13;2.22;;;1.80;;
30707;SDS011;17458;48.958;8.284;2023-08-08T01:31:57;1.92;;;1.60;;
30707;SDS011;17458;48.958;8.284;2023-08-08T01:34:41;1.88;;;1.60;;
30707;SDS011;17458;48.958;8.284;2023-08-08T01:37:29;4.18;;;1.85;;
30707;SDS011;17458;48.958;8.284;2023-08-08T01:40:27;3.08;;;2.00;;
30707;SDS011;17458;48.958;8.284;2023-08-08T01:43:16;3.20;;;1.60;;
30707;SDS011;17458;48.958;8.284;2023-08-08T01:46:02;2.53;;;1.75;;
30707;SDS011;17458;48.958;8.284;2023-08-08T01:48:47;2.10;;;1.70;;
30707;SDS011;17458;48.958;8.284;2023-08-08T01:51:32;1.88;;;1.77;;
30707;SDS011;17458;48.958;8.284;2023-08-08T01:54:16;2.83;;;1.75;;
30707;SDS011;17458;48.958;8.284;2023-08-08T01:57:00;3.33;;;2.00;;
30707;SDS011;17458;48.958;8.284;2023-08-08T01:59:45;4.20;;;1.73;;
30707;SDS011;17458;48.958;8.284;2023-08-08T02:02:29;2.92;;;2.20;;
30707;SDS011;17458;48.958;8.284;2023-08-08T02:05:13;2.67;;;1.60;;
30707;SDS011;17458;48.958;8.284;2023-08-08T02:07:57;5.53;;;1.95;;
30707;SDS011;17458;48.958;8.284;2023-08-08T02:10:41;3.08;;;1.83;;
30707;SDS011;17458;48.958;8.284;2023-08-08T02:13:25;4.68;;;1.70;;
30707;SDS011;17458;48.958;8.284;2023-08-08T02:16:09;6.18;;;1.73;;
30707;SDS011;17458;48.958;8.284;2023-08-08T02:18:53;2.45;;;1.73;;
30707;SDS011;17458;48.958;8.284;2023-08-08T02:21:37;2.13;;;1.70;;
30707;SDS011;17458;48.958;8.284;2023-08-08T02:24:21;2.90;;;1.92;;
30707;SDS011;17458;48.958;8.284;2023-08-08T02:27:08;3.03;;;2.08;;
30707;SDS011;17458;48.958;8.284;2023-08-08T02:29:54;7.32;;;2.35;;
30707;SDS011;17458;48.958;8.284;2023-08-08T02:32:38;2.75;;;1.77;;
30707;SDS011;17458;48.958;8.284;2023-08-08T02:35:22;1.90;;;1.45;;
30707;SDS011;17458;48.958;8.284;2023-08-08T02:38:07;1.83;;;1.67;;
30707;SDS011;17458;48.958;8.284;2023-08-08T02:40:52;3.80;;;1.73;;
30707;SDS011;17458;48.958;8.284;2023-08-08T02:43:37;3.42;;;2.10;;
30707;SDS011;17458;48.958;8.284;2023-08-08T02:46:21;6.40;;;1.90;;
30707;SDS011;17458;48.958;8.284;2023-08-08T02:49:05;5.68;;;2.13;;
30707;SDS011;17458;48.958;8.284;2023-08-08T02:51:49;5.70;;;1.67;;
30707;SDS011;17458;48.958;8.284;2023-08-08T02:54:34;2.22;;;1.70;;
30707;SDS011;17458;48.958;8.284;2023-08-08T02:57:18;2.03;;;1.60;;
30707;SDS011;17458;48.958;8.284;2023-08-08T03:00:03;4.00;;;1.88;;
30707;SDS011;17458;48.958;8.284;2023-08-08T03:02:58;6.03;;;2.22;;
30707;SDS011;17458;48.958;8.284;2023-08-08T03:05:43;5.65;;;2.25;;
30707;SDS011;17458;48.958;8.284;2023-08-08T03:08:28;8.50;;;1.90;;
30707;SDS011;17458;48.958;8.284;2023-08-08T03:11:14;3.75;;;1.88;;
30707;SDS011;17458;48.958;8.284;2023-08-08T03:13:59;5.00;;;3.20;;
30707;SDS011;17458;48.958;8.284;2023-08-08T03:16:43;1.90;;;1.70;;
30707;SDS011;17458;48.958;8.284;2023-08-08T03:19:29;5.70;;;1.70;;
30707;SDS011;17458;48.958;8.284;2023-08-08T03:22:15;3.85;;;2.55;;
30707;SDS011;17458;48.958;8.284;2023-08-08T03:24:59;3.10;;;2.03;;
30707;SDS011;17458;48.958;8.284;2023-08-08T03:27:43;6.85;;;1.92;;
30707;SDS011;17458;48.958;8.284;2023-08-08T03:30:30;4.18;;;2.10;;
30707;SDS011;17458;48.958;8.284;2023-08-08T03:33:15;4.38;;;1.77;;
30707;SDS011;17458;48.958;8.284;2023-08-08T03:36:00;4.78;;;1.98;;
30707;SDS011;17458;48.958;8.284;2023-08-08T03:38:44;3.25;;;2.05;;
30707;SDS011;17458;48.958;8.284;2023-08-08T03:41:30;2.13;;;1.70;;
30707;SDS011;17458;48.958;8.284;2023-08-08T03:44:14;4.82;;;2.28;;
30707;SDS011;17458;48.958;8.284;2023-08-08T03:46:58;9.23;;;1.55;;
30707;SDS011;17458;48.958;8.284;2023-08-08T03:49:42;5.40;;;1.83;;
30707;SDS011;17458;48.958;8.284;2023-08-08T03:52:26;8.00;;;2.80;;
30707;SDS011;17458;48.958;8.284;2023-08-08T03:55:10;7.55;;;2.30;;
30707;SDS011;17458;48.958;8.284;2023-08-08T03:57:56;3.05;;;1.85;;
30707;SDS011;17458;48.958;8.284;2023-08-08T04:00:40;2.75;;;2.00;;
30707;SDS011;17458;48.958;8.284;2023-08-08T04:03:29;2.08;;;1.73;;
30707;SDS011;17458;48.958;8.284;2023-08-08T04:06:14;2.10;;;1.90;;
30707;SDS011;17458;48.958;8.284;2023-08-08T04:08:58;6.45;;;2.47;;
30707;SDS011;17458;48.958;8.284;2023-08-08T04:11:42;4.07;;;1.95;;
30707;SDS011;17458;48.958;8.284;2023-08-08T04:14:26;3.72;;;2.10;;
30707;SDS011;17458;48.958;8.284;2023-08-08T04:17:10;2.85;;;2.10;;
30707;SDS011;17458;48.958;8.284;2023-08-08T04:19:53;3.60;;;2.05;;
30707;SDS011;17458;48.958;8.284;2023-08-08T04:22:38;2.03;;;1.70;;
30707;SDS011;17458;48.958;8.284;2023-08-08T04:25:22;7.45;;;2.45;;
30707;SDS011;17458;48.958;8.284;2023-08-08T04:28:06;4.63;;;2.45;;
30707;SDS011;17458;48.958;8.284;2023-08-08T04:30:50;2.88;;;2.40;;
30707;SDS011;17458;48.958;8.284;2023-08-08T04:33:35;2.75;;;2.00;;
30707;SDS011;17458;48.958;8.284;2023-08-08T04:36:18;3.22;;;1.80;;
30707;SDS011;17458;48.958;8.284;2023-08-08T04:39:02;6.05;;;2.60;;
30707;SDS011;17458;48.958;8.284;2023-08-08T04:41:46;2.58;;;1.98;;
30707;SDS011;17458;48.958;8.284;2023-08-08T04:44:30;4.82;;;2.10;;
30707;SDS011;17458;48.958;8.284;2023-08-08T04:47:14;3.20;;;2.38;;
30707;SDS011;17458;48.958;8.284;2023-08-08T04:49:58;5.20;;;2.00;;
30707;SDS011;17458;48.958;8.284;2023-08-08T04:52:42;2.78;;;2.05;;
30707;SDS011;17458;48.958;8.284;2023-08-08T04:55:26;3.72;;;2.50;;
30707;SDS011;17458;48.958;8.284;2023-08-08T04:58:10;4.63;;;2.38;;
30707;SDS011;17458;48.958;8.284;2023-08-08T05:00:54;5.60;;;2.08;;
30707;SDS011;17458;48.958;8.284;2023-08-08T05:03:38;4.45;;;2.00;;
30707;SDS011;17458;48.958;8.284;2023-08-08T05:06:22;3.10;;;2.05;;
30707;SDS011;17458;48.958;8.284;2023-08-08T05:09:06;2.72;;;1.98;;
30707;SDS011;17458;48.958;8.284;2023-08-08T05:11:53;4.68;;;1.90;;
30707;SDS011;17458;48.958;8.284;2023-08-08T05:14:37;4.50;;;2.38;;
30707;SDS011;17458;48.958;8.284;2023-08-08T05:17:21;2.80;;;2.10;;
30707;SDS011;17458;48.958;8.284;2023-08-08T05:20:05;4.07;;;1.80;;
30707;SDS011;17458;48.958;8.284;2023-08-08T05:22:50;5.10;;;2.92;;
30707;SDS011;17458;48.958;8.284;2023-08-08T05:25:35;6.70;;;1.88;;
30707;SDS011;17458;48.958;8.284;2023-08-08T05:28:19;1.58;;;1.45;;
30707;SDS011;17458;48.958;8.284;2023-08-08T05:31:04;4.30;;;2.22;;
30707;SDS011;17458;48.958;8.284;2023-08-08T05:33:48;2.22;;;1.52;;
30707;SDS011;17458;48.958;8.284;2023-08-08T05:36:32;1.95;;;1.35;;
30707;SDS011;17458;48.958;8.284;2023-08-08T05:39:16;10.25;;;2.53;;
30707;SDS011;17458;48.958;8.284;2023-08-08T05:42:00;2.55;;;1.55;;
30707;SDS011;17458;48.958;8.284;2023-08-08T05:44:44;3.13;;;1.60;;
30707;SDS011;17458;48.958;8.284;2023-08-08T05:47:28;2.67;;;1.70;;
30707;SDS011;17458;48.958;8.284;2023-08-08T05:50:12;6.22;;;2.40;;
30707;SDS011;17458;48.958;8.284;2023-08-08T05:52:56;2.47;;;1.60;;
30707;SDS011;17458;48.958;8.284;2023-08-08T05:55:40;2.28;;;1.45;;
30707;SDS011;17458;48.958;8.284;2023-08-08T05:58:26;5.95;;;1.52;;
30707;SDS011;17458;48.958;8.284;2023-08-08T06:01:10;4.25;;;1.50;;
30707;SDS011;17458;48.958;8.284;2023-08-08T06:03:55;1.98;;;1.70;;
30707;SDS011;17458;48.958;8.284;2023-08-08T06:06:41;3.30;;;1.60;;
30707;SDS011;17458;48.958;8.284;2023-08-08T06:09:25;2.60;;;1.75;;
30707;SDS011;17458;48.958;8.284;2023-08-08T06:12:09;3.03;;;1.95;;
30707;SDS011;17458;48.958;8.284;2023-08-08T06:14:53;2.67;;;1.67;;
30707;SDS011;17458;48.958;8.284;2023-08-08T06:17:37;4.93;;;1.98;;
30707;SDS011;17458;48.958;8.284;2023-08-08T06:20:21;1.90;;;1.50;;
30707;SDS011;17458;48.958;8.284;2023-08-08T06:23:05;3.50;;;1.63;;
30707;SDS011;17458;48.958;8.284;2023-08-08T06:25:49;2.70;;;1.60;;
30707;SDS011;17458;48.958;8.284;2023-08-08T06:28:33;2.80;;;1.40;;
30707;SDS011;17458;48.958;8.284;2023-08-08T06:31:18;1.80;;;1.70;;
30707;SDS011;17458;48.958;8.284;2023-08-08T06:34:03;3.20;;;1.40;;
30707;SDS011;17458;48.958;8.284;2023-08-08T06:36:47;1.88;;;1.63;;
30707;SDS011;17458;48.958;8.284;2023-08-08T06:39:31;1.63;;;1.52;;
30707;SDS011;17458;48.958;8.284;2023-08-08T06:42:15;2.65;;;1.70;;
30707;SDS011;17458;48.958;8.284;2023-08-08T06:45:11;1.77;;;1.52;;
30707;SDS011;17458;48.958;8.284;2023-08-08T06:47:55;2.15;;;1.35;;
30707;SDS011;17458;48.958;8.284;2023-08-08T06:50:38;1.98;;;1.63;;
30707;SDS011;17458;48.958;8.284;2023-08-08T06:53:22;3.20;;;1.50;;
30707;SDS011;17458;48.958;8.284;2023-08-08T06:56:07;2.55;;;1.42;;
30707;SDS011;17458;48.958;8.284;2023-08-08T06:58:51;3.22;;;1.45;;
30707;SDS011;17458;48.958;8.284;2023-08-08T07:01:35;4.30;;;1.77;;
30707;SDS011;17458;48.958;8.284;2023-08-08T07:04:19;8.60;;;1.63;;
30707;SDS011;17458;48.958;8.284;2023-08-08T07:07:06;4.15;;;2.15;;
30707;SDS011;17458;48.958;8.284;2023-08-08T07:09:50;5.38;;;1.60;;
30707;SDS011;17458;48.958;8.284;2023-08-08T07:12:34;8.45;;;1.67;;
30707;SDS011;17458;48.958;8.284;2023-08-08T07:15:18;1.13;;;1.02;;
30707;SDS011;17458;48.958;8.284;2023-08-08T07:18:02;7.20;;;1.70;;
30707;SDS011;17458;48.958;8.284;2023-08-08T07:20:46;6.93;;;2.08;;
30707;SDS011;17458;48.958;8.284;2023-08-08T07:23:29;4.32;;;1.27;;
30707;SDS011;17458;48.958;8.284;2023-08-08T07:26:13;5.47;;;1.50;;
30707;SDS011;17458;48.958;8.284;2023-08-08T07:28:57;5.32;;;1.60;;
30707;SDS011;17458;48.958;8.284;2023-08-08T07:31:41;7.35;;;1.20;;
30707;SDS011;17458;48.958;8.284;2023-08-08T07:34:25;3.72;;;1.80;;
30707;SDS011;17458;48.958;8.284;2023-08-08T07:37:09;5.05;;;1.83;;
30707;SDS011;17458;48.958;8.284;2023-08-08T07:39:53;2.53;;;1.20;;
30707;SDS011;17458;48.958;8.284;2023-08-08T07:42:37;3.05;;;1.50;;
30707;SDS011;17458;48.958;8.284;2023-08-08T07:45:21;5.45;;;1.38;;
30707;SDS011;17458;48.958;8.284;2023-08-08T07:48:05;1.92;;;1.55;;
30707;SDS011;17458;48.958;8.284;2023-08-08T07:50:48;5.65;;;1.83;;
30707;SDS011;17458;48.958;8.284;2023-08-08T07:53:33;1.90;;;1.50;;
30707;SDS011;17458;48.958;8.284;2023-08-08T07:56:16;3.17;;;1.27;;
30707;SDS011;17458;48.958;8.284;2023-08-08T07:59:00;2.88;;;1.17;;
30707;SDS011;17458;48.958;8.284;2023-08-08T08:01:45;4.95;;;1.88;;
30707;SDS011;17458;48.958;8.284;2023-08-08T08:04:28;4.68;;;1.55;;
30707;SDS011;17458;48.958;8.284;2023-08-08T08:07:12;2.65;;;1.38;;
30707;SDS011;17458;48.958;8.284;2023-08-08T08:09:56;2.85;;;1.40;;
30707;SDS011;17458;48.958;8.284;2023-08-08T08:12:40;4.50;;;1.23;;
30707;SDS011;17458;48.958;8.284;2023-08-08T08:15:25;7.50;;;1.20;;
30707;SDS011;17458;48.958;8.284;2023-08-08T08:18:09;3.67;;;1.20;;
30707;SDS011;17458;48.958;8.284;2023-08-08T08:20:56;3.67;;;1.17;;
30707;SDS011;17458;48.958;8.284;2023-08-08T08:23:40;2.47;;;1.33;;
30707;SDS011;17458;48.958;8.284;2023-08-08T08:26:24;2.08;;;1.48;;
30707;SDS011;17458;48.958;8.284;2023-08-08T08:29:08;4.32;;;1.55;;
30707;SDS011;17458;48.958;8.284;2023-08-08T08:31:51;3.53;;;1.33;;
30707;SDS011;17458;48.958;8.284;2023-08-08T08:34:36;2.55;;;1.35;;
30707;SDS011;17458;48.958;8.284;2023-08-08T08:37:19;3.65;;;2.05;;
30707;SDS011;17458;48.958;8.284;2023-08-08T08:40:03;1.98;;;1.30;;
30707;SDS011;17458;48.958;8.284;2023-08-08T08:42:48;3.95;;;1.33;;
30707;SDS011;17458;48.958;8.284;2023-08-08T08:45:34;4.18;;;1.20;;
30707;SDS011;17458;48.958;8.284;2023-08-08T08:48:22;4.78;;;1.00;;
30707;SDS011;17458;48.958;8.284;2023-08-08T08:51:07;3.97;;;1.10;;
30707;SDS011;17458;48.958;8.284;2023-08-08T08:53:51;3.47;;;1.85;;
30707;SDS011;17458;48.958;8.284;2023-08-08T08:56:35;2.05;;;1.25;;
30707;SDS011;17458;48.958;8.284;2023-08-08T08:59:19;2.38;;;1.23;;
30707;SDS011;17458;48.958;8.284;2023-08-08T09:02:03;7.38;;;1.30;;
30707;SDS011;17458;48.958;8.284;2023-08-08T09:04:47;5.20;;;1.20;;
30707;SDS011;17458;48.958;8.284;2023-08-08T09:07:32;3.38;;;1.23;;
30707;SDS011;17458;48.958;8.284;2023-08-08T09:10:17;6.05;;;1.15;;
30707;SDS011;17458;48.958;8.284;2023-08-08T09:13:02;4.25;;;1.40;;
30707;SDS011;17458;48.958;8.284;2023-08-08T09:15:46;2.53;;;1.45;;
30707;SDS011;17458;48.958;8.284;2023-08-08T09:18:32;5.88;;;1.40;;
30707;SDS011;17458;48.958;8.284;2023-08-08T09:21:17;11.00;;;1.38;;
30707;SDS011;17458;48.958;8.284;2023-08-08T09:24:02;3.30;;;1.40;;
30707;SDS011;17458;48.958;8.284;2023-08-08T09:26:46;4.93;;;1.17;;
30707;SDS011;17458;48.958;8.284;2023-08-08T09:29:31;3.80;;;1.35;;
30707;SDS011;17458;48.958;8.284;2023-08-08T09:32:17;9.00;;;1.58;;
30707;SDS011;17458;48.958;8.284;2023-08-08T09:35:01;1.23;;;1.10;;
30707;SDS011;17458;48.958;8.284;2023-08-08T09:37:46;3.50;;;1.38;;
30707;SDS011;17458;48.958;8.284;2023-08-08T09:40:29;3.75;;;1.27;;
30707;SDS011;17458;48.958;8.284;2023-08-08T09:43:14;4.25;;;1.40;;
30707;SDS011;17458;48.958;8.284;2023-08-08T09:45:58;3.53;;;1.23;;
30707;SDS011;17458;48.958;8.284;2023-08-08T09:48:42;2.00;;;1.52;;
30707;SDS011;17458;48.958;8.284;2023-08-08T09:51:27;3.58;;;1.30;;
30707;SDS011;17458;48.958;8.284;2023-08-08T09:54:12;1.75;;;0.95;;
30707;SDS011;17458;48.958;8.284;2023-08-08T09:56:57;2.22;;;1.00;;
30707;SDS011;17458;48.958;8.284;2023-08-08T09:59:43;3.30;;;1.30;;
30707;SDS011;17458;48.958;8.284;2023-08-08T10:02:30;6.00;;;1.42;;
30707;SDS011;17458;48.958;8.284;2023-08-08T10:05:15;2.13;;;1.27;;
30707;SDS011;17458;48.958;8.284;2023-08-08T10:08:00;4.53;;;1.40;;
30707;SDS011;17458;48.958;8.284;2023-08-08T10:10:45;0.95;;;0.88;;
30707;SDS011;17458;48.958;8.284;2023-08-08T10:13:31;2.78;;;1.92;;
30707;SDS011;17458;48.958;8.284;2023-08-08T10:16:16;6.00;;;1.38;;
30707;SDS011;17458;48.958;8.284;2023-08-08T10:19:03;4.00;;;1.02;;
30707;SDS011;17458;48.958;8.284;2023-08-08T10:21:47;1.20;;;1.00;;
30707;SDS011;17458;48.958;8.284;2023-08-08T10:24:35;3.03;;;2.08;;
30707;SDS011;17458;48.958;8.284;2023-08-08T10:27:31;2.25;;;1.15;;
30707;SDS011;17458;48.958;8.284;2023-08-08T10:30:17;3.88;;;1.25;;
30707;SDS011;17458;48.958;8.284;2023-08-08T10:33:01;1.50;;;1.05;;
30707;SDS011;17458;48.958;8.284;2023-08-08T10:36:01;2.58;;;1.10;;
30707;SDS011;17458;48.958;8.284;2023-08-08T10:38:50;0.85;;;0.70;;
30707;SDS011;17458;48.958;8.284;2023-08-08T10:41:43;5.53;;;1.20;;
30707;SDS011;17458;48.958;8.284;2023-08-08T10:44:29;2.20;;;0.80;;
30707;SDS011;17458;48.958;8.284;2023-08-08T10:47:12;1.30;;;0.82;;
30707;SDS011;17458;48.958;8.284;2023-08-08T10:50:03;1.60;;;0.90;;
30707;SDS011;17458;48.958;8.284;2023-08-08T10:52:54;1.67;;;0.75;;
30707;SDS011;17458;48.958;8.284;2023-08-08T10:55:39;6.22;;;0.82;;
30707;SDS011;17458;48.958;8.284;2023-08-08T10:58:23;6.78;;;1.20;;
30707;SDS011;17458;48.958;8.284;2023-08-08T11:01:24;0.82;;;0.70;;
30707;SDS011;17458;48.958;8.284;2023-08-08T11:04:09;1.38;;;0.82;;
30707;SDS011;17458;48.958;8.284;2023-08-08T11:06:54;1.08;;;0.90;;
30707;SDS011;17458;48.958;8.284;2023-08-08T11:09:38;1.88;;;0.80;;
30707;SDS011;17458;48.958;8.284;2023-08-08T11:12:23;2.17;;;0.80;;
30707;SDS011;17458;48.958;8.284;2023-08-08T11:15:10;1.50;;;0.75;;
30707;SDS011;17458;48.958;8.284;2023-08-08T11:17:57;3.60;;;1.05;;
30707;SDS011;17458;48.958;8.284;2023-08-08T11:20:42;4.20;;;0.85;;
30707;SDS011;17458;48.958;8.284;2023-08-08T11:23:27;6.75;;;1.00;;
30707;SDS011;17458;48.958;8.284;2023-08-08T11:26:10;5.25;;;0.80;;
30707;SDS011;17458;48.958;8.284;2023-08-08T11:28:54;2.00;;;0.82;;
30707;SDS011;17458;48.958;8.284;2023-08-08T11:31:39;1.58;;;1.02;;
30707;SDS011;17458;48.958;8.284;2023-08-08T11:34:24;1.55;;;1.08;;
30707;SDS011;17458;48.958;8.284;2023-08-08T11:37:09;5.28;;;1.23;;
30707;SDS011;17458;48.958;8.284;2023-08-08T11:39:55;1.85;;;0.80;;
30707;SDS011;17458;48.958;8.284;2023-08-08T11:42:39;3.65;;;1.02;;
30707;SDS011;17458;48.958;8.284;2023-08-08T11:45:25;2.38;;;0.77;;
30707;SDS011;17458;48.958;8.284;2023-08-08T11:48:08;1.52;;;0.85;;
30707;SDS011;17458;48.958;8.284;2023-08-08T11:50:53;4.20;;;0.77;;
30707;SDS011;17458;48.958;8.284;2023-08-08T11:53:47;4.63;;;1.17;;
30707;SDS011;17458;48.958;8.284;2023-08-08T11:56:33;1.85;;;0.90;;
30707;SDS011;17458;48.958;8.284;2023-08-08T11:59:18;0.82;;;0.80;;
30707;SDS011;17458;48.958;8.284;2023-08-08T12:02:02;2.97;;;1.10;;
30707;SDS011;17458;48.958;8.284;2023-08-08T12:04:46;4.30;;;0.88;;
30707;SDS011;17458;48.958;8.284;2023-08-08T12:07:31;2.95;;;0.95;;
30707;SDS011;17458;48.958;8.284;2023-08-08T12:10:19;1.60;;;0.80;;
30707;SDS011;17458;48.958;8.284;2023-08-08T12:13:04;1.38;;;0.98;;
30707;SDS011;17458;48.958;8.284;2023-08-08T12:15:49;3.20;;;1.05;;
30707;SDS011;17458;48.958;8.284;2023-08-08T12:18:34;2.33;;;1.10;;
30707;SDS011;17458;48.958;8.284;2023-08-08T12:21:19;1.35;;;1.25;;
30707;SDS011;17458;48.958;8.284;2023-08-08T12:24:03;1.10;;;1.00;;
30707;SDS011;17458;48.958;8.284;2023-08-08T12:26:47;1.50;;;0.75;;
30707;SDS011;17458;48.958;8.284;2023-08-08T12:29:31;2.63;;;0.63;;
30707;SDS011;17458;48.958;8.284;2023-08-08T12:32:15;2.40;;;0.85;;
30707;SDS011;17458;48.958;8.284;2023-08-08T12:34:59;2.83;;;0.85;;
30707;SDS011;17458;48.958;8.284;2023-08-08T12:37:43;1.92;;;1.05;;
30707;SDS011;17458;48.958;8.284;2023-08-08T12:40:27;3.30;;;1.67;;
30707;SDS011;17458;48.958;8.284;2023-08-08T12:43:11;4.65;;;1.05;;
30707;SDS011;17458;48.958;8.284;2023-08-08T12:46:01;2.35;;;1.77;;
30707;SDS011;17458;48.958;8.284;2023-08-08T12:48:45;4.40;;;1.10;;
30707;SDS011;17458;48.958;8.284;2023-08-08T12:51:29;2.30;;;0.77;;
30707;SDS011;17458;48.958;8.284;2023-08-08T12:54:17;5.68;;;0.95;;
30707;SDS011;17458;48.958;8.284;2023-08-08T12:57:01;0.65;;;0.60;;
30707;SDS011;17458;48.958;8.284;2023-08-08T12:59:45;1.50;;;0.95;;
30707;SDS011;17458;48.958;8.284;2023-08-08T13:02:28;8.27;;;0.95;;
30707;SDS011;17458;48.958;8.284;2023-08-08T13:05:12;1.48;;;0.70;;
30707;SDS011;17458;48.958;8.284;2023-08-08T13:07:56;2.88;;;1.08;;
30707;SDS011;17458;48.958;8.284;2023-08-08T13:10:40;2.05;;;0.70;;
30707;SDS011;17458;48.958;8.284;2023-08-08T13:13:24;2.80;;;0.90;;
30707;SDS011;17458;48.958;8.284;2023-08-08T13:16:09;1.90;;;1.20;;
30707;SDS011;17458;48.958;8.284;2023-08-08T13:18:54;4.93;;;1.00;;
30707;SDS011;17458;48.958;8.284;2023-08-08T13:21:38;5.72;;;0.82;;
30707;SDS011;17458;48.958;8.284;2023-08-08T13:24:22;2.15;;;0.90;;
30707;SDS011;17458;48.958;8.284;2023-08-08T13:27:06;3.70;;;0.80;;
30707;SDS011;17458;48.958;8.284;2023-08-08T13:29:50;0.77;;;0.60;;
30707;SDS011;17458;48.958;8.284;2023-08-08T13:32:34;2.50;;;0.88;;
30707;SDS011;17458;48.958;8.284;2023-08-08T13:35:18;1.00;;;0.80;;
30707;SDS011;17458;48.958;8.284;2023-08-08T13:38:02;5.43;;;0.80;;
30707;SDS011;17458;48.958;8.284;2023-08-08T13:40:47;1.10;;;0.60;;
30707;SDS011;17458;48.958;8.284;2023-08-08T13:43:32;1.30;;;0.73;;
30707;SDS011;17458;48.958;8.284;2023-08-08T13:46:16;1.17;;;0.70;;
30707;SDS011;17458;48.958;8.284;2023-08-08T13:49:00;4.78;;;1.10;;
30707;SDS011;17458;48.958;8.284;2023-08-08T13:51:44;1.90;;;0.80;;
30707;SDS011;17458;48.958;8.284;2023-08-08T13:54:28;0.93;;;0.70;;
30707;SDS011;17458;48.958;8.284;2023-08-08T13:57:11;2.05;;;0.93;;
30707;SDS011;17458;48.958;8.284;2023-08-08T13:59:55;1.95;;;0.70;;
30707;SDS011;17458;48.958;8.284;2023-08-08T14:02:39;2.95;;;0.85;;
30707;SDS011;17458;48.958;8.284;2023-08-08T14:05:23;2.03;;;0.70;;
30707;SDS011;17458;48.958;8.284;2023-08-08T14:08:08;0.60;;;0.60;;
30707;SDS011;17458;48.958;8.284;2023-08-08T14:10:53;1.42;;;0.90;;
30707;SDS011;17458;48.958;8.284;2023-08-08T14:13:37;2.45;;;0.80;;
30707;SDS011;17458;48.958;8.284;2023-08-08T14:16:22;3.58;;;0.70;;
30707;SDS011;17458;48.958;8.284;2023-08-08T14:19:05;1.58;;;0.75;;
30707;SDS011;17458;48.958;8.284;2023-08-08T14:21:49;1.55;;;0.88;;
30707;SDS011;17458;48.958;8.284;2023-08-08T14:24:33;1.77;;;0.90;;
30707;SDS011;17458;48.958;8.284;2023-08-08T14:27:17;1.77;;;0.70;;
30707;SDS011;17458;48.958;8.284;2023-08-08T14:30:02;0.85;;;0.68;;
30707;SDS011;17458;48.958;8.284;2023-08-08T14:32:47;3.00;;;0.93;;
30707;SDS011;17458;48.958;8.284;2023-08-08T14:35:31;4.72;;;0.93;;
30707;SDS011;17458;48.958;8.284;2023-08-08T14:38:15;0.85;;;0.73;;
30707;SDS011;17458;48.958;8.284;2023-08-08T14:40:59;1.30;;;0.80;;
30707;SDS011;17458;48.958;8.284;2023-08-08T14:43:43;1.30;;;0.80;;
30707;SDS011;17458;48.958;8.284;2023-08-08T14:46:27;1.60;;;0.80;;
30707;SDS011;17458;48.958;8.284;2023-08-08T14:49:13;2.67;;;0.90;;
30707;SDS011;17458;48.958;8.284;2023-08-08T14:51:57;1.92;;;1.10;;
30707;SDS011;17458;48.958;8.284;2023-08-08T14:54:41;3.58;;;0.93;;
30707;SDS011;17458;48.958;8.284;2023-08-08T14:57:25;2.08;;;0.75;;
30707;SDS011;17458;48.958;8.284;2023-08-08T15:00:09;2.63;;;1.08;;
30707;SDS011;17458;48.958;8.284;2023-08-08T15:02:56;0.85;;;0.70;;
30707;SDS011;17458;48.958;8.284;2023-08-08T15:05:40;4.10;;;0.85;;
30707;SDS011;17458;48.958;8.284;2023-08-08T15:08:24;1.27;;;0.70;;
30707;SDS011;17458;48.958;8.284;2023-08-08T15:11:09;8.93;;;1.00;;
30707;SDS011;17458;48.958;8.284;2023-08-08T15:13:52;4.90;;;1.50;;
30707;SDS011;17458;48.958;8.284;2023-08-08T15:16:36;1.15;;;0.50;;
30707;SDS011;17458;48.958;8.284;2023-08-08T15:19:20;6.47;;;0.98;;
30707;SDS011;17458;48.958;8.284;2023-08-08T15:22:04;1.00;;;0.80;;
30707;SDS011;17458;48.958;8.284;2023-08-08T15:24:50;2.67;;;1.30;;
30707;SDS011;17458;48.958;8.284;2023-08-08T15:27:34;1.30;;;0.80;;
30707;SDS011;17458;48.958;8.284;2023-08-08T15:30:18;3.40;;;1.02;;
30707;SDS011;17458;48.958;8.284;2023-08-08T15:33:03;0.73;;;0.52;;
30707;SDS011;17458;48.958;8.284;2023-08-08T15:35:47;6.10;;;1.50;;
30707;SDS011;17458;48.958;8.284;2023-08-08T15:38:32;2.35;;;0.85;;
30707;SDS011;17458;48.958;8.284;2023-08-08T15:41:16;3.80;;;0.65;;
30707;SDS011;17458;48.958;8.284;2023-08-08T15:44:00;2.85;;;1.02;;
30707;SDS011;17458;48.958;8.284;2023-08-08T15:46:44;3.75;;;0.70;;
30707;SDS011;17458;48.958;8.284;2023-08-08T15:49:28;2.30;;;0.90;;
30707;SDS011;17458;48.958;8.284;2023-08-08T15:52:12;2.60;;;0.95;;
30707;SDS011;17458;48.958;8.284;2023-08-08T15:54:56;1.45;;;0.73;;
30707;SDS011;17458;48.958;8.284;2023-08-08T15:57:41;1.17;;;0.70;;
30707;SDS011;17458;48.958;8.284;2023-08-08T16:00:24;1.45;;;0.88;;
30707;SDS011;17458;48.958;8.284;2023-08-08T16:03:08;2.80;;;0.75;;
30707;SDS011;17458;48.958;8.284;2023-08-08T16:05:52;0.98;;;0.80;;
30707;SDS011;17458;48.958;8.284;2023-08-08T16:08:37;0.93;;;0.57;;
30707;SDS011;17458;48.958;8.284;2023-08-08T16:11:21;5.65;;;0.93;;
30707;SDS011;17458;48.958;8.284;2023-08-08T16:14:05;3.20;;;0.55;;
30707;SDS011;17458;48.958;8.284;2023-08-08T16:16:49;1.65;;;1.10;;
30707;SDS011;17458;48.958;8.284;2023-08-08T16:19:33;4.70;;;1.67;;
30707;SDS011;17458;48.958;8.284;2023-08-08T16:22:18;2.08;;;0.75;;
30707;SDS011;17458;48.958;8.284;2023-08-08T16:25:02;2.63;;;0.90;;
30707;SDS011;17458;48.958;8.284;2023-08-08T16:27:49;1.27;;;0.73;;
30707;SDS011;17458;48.958;8.284;2023-08-08T16:30:33;6.32;;;1.00;;
30707;SDS011;17458;48.958;8.284;2023-08-08T16:33:17;1.00;;;0.70;;
30707;SDS011;17458;48.958;8.284;2023-08-08T16:36:01;1.38;;;0.85;;